sensor_id;sensor_type;location;lat;lon;timestamp;P1;durP1;ratioP1;P2;durP2;ratioP2
5052;SDS011;2545;50.892;5.740;2022-10-17T00:01:31;10.37;;;8.70;;
5052;SDS011;2545;50.892;5.740;2022-10-17T00:03:56;10.77;;;8.80;;
5052;SDS011;2545;50.892;5.740;2022-10-17T00:06:22;13.00;;;8.47;;
5052;SDS011;2545;50.892;5.740;2022-10-17T00:08:47;16.13;;;8.53;;
5052;SDS011;2545;50.892;5.740;2022-10-17T00:11:17;9.60;;;7.80;;
5052;SDS011;2545;50.892;5.740;2022-10-17T00:13:45;14.57;;;8.53;;
5052;SDS011;2545;50.892;5.740;2022-10-17T00:16:11;9.97;;;8.53;;
5052;SDS011;2545;50.892;5.740;2022-10-17T00:18:37;13.07;;;9.33;;
5052;SDS011;2545;50.892;5.740;2022-10-17T00:21:02;15.20;;;9.43;;
5052;SDS011;2545;50.892;5.740;2022-10-17T00:23:27;10.27;;;8.20;;
5052;SDS011;2545;50.892;5.740;2022-10-17T00:26:00;13.53;;;9.00;;
5052;SDS011;2545;50.892;5.740;2022-10-17T00:28:27;19.63;;;9.00;;
5052;SDS011;2545;50.892;5.740;2022-10-17T00:30:59;15.30;;;8.83;;
5052;SDS011;2545;50.892;5.740;2022-10-17T00:33:27;14.67;;;8.70;;
5052;SDS011;2545;50.892;5.740;2022-10-17T00:36:10;9.63;;;8.07;;
5052;SDS011;2545;50.892;5.740;2022-10-17T00:38:38;13.70;;;9.20;;
5052;SDS011;2545;50.892;5.740;2022-10-17T00:41:05;11.80;;;8.27;;
5052;SDS011;2545;50.892;5.740;2022-10-17T00:46:30;13.40;;;9.00;;
5052;SDS011;2545;50.892;5.740;2022-10-17T00:48:58;11.20;;;7.60;;
5052;SDS011;2545;50.892;5.740;2022-10-17T00:51:28;13.33;;;7.90;;
5052;SDS011;2545;50.892;5.740;2022-10-17T00:53:58;8.00;;;6.70;;
5052;SDS011;2545;50.892;5.740;2022-10-17T00:56:26;13.30;;;8.30;;
5052;SDS011;2545;50.892;5.740;2022-10-17T00:58:51;10.50;;;6.77;;
5052;SDS011;2545;50.892;5.740;2022-10-17T01:01:17;11.53;;;7.00;;
5052;SDS011;2545;50.892;5.740;2022-10-17T01:03:42;10.53;;;6.97;;
5052;SDS011;2545;50.892;5.740;2022-10-17T01:06:08;10.47;;;7.13;;
5052;SDS011;2545;50.892;5.740;2022-10-17T01:08:33;10.60;;;7.57;;
5052;SDS011;2545;50.892;5.740;2022-10-17T01:13:58;9.73;;;7.10;;
5052;SDS011;2545;50.892;5.740;2022-10-17T01:19:23;9.43;;;6.70;;
5052;SDS011;2545;50.892;5.740;2022-10-17T01:32:44;13.53;;;6.30;;
5052;SDS011;2545;50.892;5.740;2022-10-17T01:35:24;12.20;;;6.83;;
5052;SDS011;2545;50.892;5.740;2022-10-17T01:40:44;9.07;;;6.23;;
5052;SDS011;2545;50.892;5.740;2022-10-17T01:44:17;10.90;;;6.13;;
5052;SDS011;2545;50.892;5.740;2022-10-17T01:46:33;8.90;;;6.00;;
5052;SDS011;2545;50.892;5.740;2022-10-17T01:49:01;11.70;;;6.60;;
5052;SDS011;2545;50.892;5.740;2022-10-17T01:51:32;14.93;;;6.37;;
5052;SDS011;2545;50.892;5.740;2022-10-17T01:57:27;10.80;;;7.37;;
5052;SDS011;2545;50.892;5.740;2022-10-17T01:59:56;8.60;;;7.40;;
5052;SDS011;2545;50.892;5.740;2022-10-17T02:02:22;17.97;;;6.23;;
5052;SDS011;2545;50.892;5.740;2022-10-17T02:04:49;18.93;;;6.10;;
5052;SDS011;2545;50.892;5.740;2022-10-17T02:07:16;12.33;;;6.30;;
5052;SDS011;2545;50.892;5.740;2022-10-17T02:09:41;9.00;;;5.83;;
5052;SDS011;2545;50.892;5.740;2022-10-17T02:17:57;7.23;;;5.93;;
5052;SDS011;2545;50.892;5.740;2022-10-17T02:20:39;6.30;;;5.60;;
5052;SDS011;2545;50.892;5.740;2022-10-17T02:28:30;6.60;;;5.90;;
5052;SDS011;2545;50.892;5.740;2022-10-17T02:31:06;13.50;;;5.83;;
5052;SDS011;2545;50.892;5.740;2022-10-17T02:33:40;11.30;;;5.80;;
5052;SDS011;2545;50.892;5.740;2022-10-17T02:36:12;13.00;;;6.10;;
5052;SDS011;2545;50.892;5.740;2022-10-17T02:38:42;7.17;;;5.80;;
5052;SDS011;2545;50.892;5.740;2022-10-17T02:41:10;7.47;;;6.30;;
5052;SDS011;2545;50.892;5.740;2022-10-17T02:43:42;7.77;;;5.63;;
5052;SDS011;2545;50.892;5.740;2022-10-17T02:46:10;13.03;;;5.80;;
5052;SDS011;2545;50.892;5.740;2022-10-17T02:48:46;8.90;;;6.60;;
5052;SDS011;2545;50.892;5.740;2022-10-17T02:54:08;19.27;;;5.83;;
5052;SDS011;2545;50.892;5.740;2022-10-17T02:56:42;7.53;;;6.20;;
5052;SDS011;2545;50.892;5.740;2022-10-17T02:59:14;14.23;;;6.07;;
5052;SDS011;2545;50.892;5.740;2022-10-17T03:01:43;9.33;;;6.13;;
5052;SDS011;2545;50.892;5.740;2022-10-17T03:04:10;9.53;;;5.73;;
5052;SDS011;2545;50.892;5.740;2022-10-17T03:06:38;7.43;;;6.40;;
5052;SDS011;2545;50.892;5.740;2022-10-17T03:09:05;15.00;;;5.97;;
5052;SDS011;2545;50.892;5.740;2022-10-17T03:11:30;7.27;;;5.70;;
5052;SDS011;2545;50.892;5.740;2022-10-17T03:13:56;18.00;;;5.70;;
5052;SDS011;2545;50.892;5.740;2022-10-17T03:16:21;12.67;;;5.63;;
5052;SDS011;2545;50.892;5.740;2022-10-17T03:18:46;10.83;;;6.10;;
5052;SDS011;2545;50.892;5.740;2022-10-17T03:21:12;11.10;;;6.17;;
5052;SDS011;2545;50.892;5.740;2022-10-17T03:23:37;12.90;;;6.93;;
5052;SDS011;2545;50.892;5.740;2022-10-17T03:26:03;10.87;;;5.43;;
5052;SDS011;2545;50.892;5.740;2022-10-17T03:28:29;9.83;;;5.57;;
5052;SDS011;2545;50.892;5.740;2022-10-17T03:30:55;7.70;;;5.87;;
5052;SDS011;2545;50.892;5.740;2022-10-17T03:33:20;8.47;;;6.30;;
5052;SDS011;2545;50.892;5.740;2022-10-17T03:35:45;8.63;;;5.17;;
5052;SDS011;2545;50.892;5.740;2022-10-17T03:38:11;15.07;;;5.53;;
5052;SDS011;2545;50.892;5.740;2022-10-17T03:40:36;9.60;;;5.40;;
5052;SDS011;2545;50.892;5.740;2022-10-17T03:43:01;10.43;;;6.30;;
5052;SDS011;2545;50.892;5.740;2022-10-17T03:45:26;9.50;;;6.77;;
5052;SDS011;2545;50.892;5.740;2022-10-17T03:47:52;11.83;;;5.63;;
5052;SDS011;2545;50.892;5.740;2022-10-17T03:50:17;7.27;;;5.53;;
5052;SDS011;2545;50.892;5.740;2022-10-17T03:52:45;7.40;;;5.77;;
5052;SDS011;2545;50.892;5.740;2022-10-17T03:55:12;16.23;;;6.63;;
5052;SDS011;2545;50.892;5.740;2022-10-17T03:57:37;12.00;;;6.30;;
5052;SDS011;2545;50.892;5.740;2022-10-17T04:00:03;7.57;;;6.00;;
5052;SDS011;2545;50.892;5.740;2022-10-17T04:02:29;20.03;;;5.97;;
5052;SDS011;2545;50.892;5.740;2022-10-17T04:04:54;12.13;;;5.30;;
5052;SDS011;2545;50.892;5.740;2022-10-17T04:07:19;8.43;;;5.80;;
5052;SDS011;2545;50.892;5.740;2022-10-17T04:09:45;6.70;;;5.40;;
5052;SDS011;2545;50.892;5.740;2022-10-17T04:12:10;9.70;;;5.40;;
5052;SDS011;2545;50.892;5.740;2022-10-17T04:14:35;10.90;;;6.10;;
5052;SDS011;2545;50.892;5.740;2022-10-17T04:17:01;6.80;;;5.00;;
5052;SDS011;2545;50.892;5.740;2022-10-17T04:19:26;14.23;;;5.37;;
5052;SDS011;2545;50.892;5.740;2022-10-17T04:21:52;9.00;;;5.67;;
5052;SDS011;2545;50.892;5.740;2022-10-17T04:24:17;13.20;;;5.33;;
5052;SDS011;2545;50.892;5.740;2022-10-17T04:26:42;7.87;;;5.00;;
5052;SDS011;2545;50.892;5.740;2022-10-17T04:29:08;7.80;;;4.70;;
5052;SDS011;2545;50.892;5.740;2022-10-17T04:31:33;14.67;;;5.80;;
5052;SDS011;2545;50.892;5.740;2022-10-17T04:33:59;7.37;;;5.90;;
5052;SDS011;2545;50.892;5.740;2022-10-17T04:36:24;8.77;;;5.67;;
5052;SDS011;2545;50.892;5.740;2022-10-17T04:38:49;7.50;;;5.40;;
5052;SDS011;2545;50.892;5.740;2022-10-17T04:41:15;10.50;;;5.00;;
5052;SDS011;2545;50.892;5.740;2022-10-17T04:43:42;8.43;;;5.20;;
5052;SDS011;2545;50.892;5.740;2022-10-17T04:46:08;7.23;;;5.70;;
5052;SDS011;2545;50.892;5.740;2022-10-17T04:48:36;7.70;;;4.90;;
5052;SDS011;2545;50.892;5.740;2022-10-17T04:51:03;9.00;;;5.63;;
5052;SDS011;2545;50.892;5.740;2022-10-17T04:53:31;7.73;;;4.80;;
5052;SDS011;2545;50.892;5.740;2022-10-17T04:55:58;11.67;;;5.67;;
5052;SDS011;2545;50.892;5.740;2022-10-17T04:58:24;5.80;;;4.80;;
5052;SDS011;2545;50.892;5.740;2022-10-17T05:00:49;8.13;;;5.60;;
5052;SDS011;2545;50.892;5.740;2022-10-17T05:03:15;5.97;;;4.60;;
5052;SDS011;2545;50.892;5.740;2022-10-17T05:05:41;17.27;;;6.37;;
5052;SDS011;2545;50.892;5.740;2022-10-17T05:08:07;8.73;;;5.40;;
5052;SDS011;2545;50.892;5.740;2022-10-17T05:10:35;10.43;;;6.03;;
5052;SDS011;2545;50.892;5.740;2022-10-17T05:13:01;20.53;;;6.07;;
5052;SDS011;2545;50.892;5.740;2022-10-17T05:15:27;13.63;;;5.20;;
5052;SDS011;2545;50.892;5.740;2022-10-17T05:17:55;13.80;;;5.37;;
5052;SDS011;2545;50.892;5.740;2022-10-17T05:20:21;13.60;;;5.70;;
5052;SDS011;2545;50.892;5.740;2022-10-17T05:22:46;7.63;;;5.93;;
5052;SDS011;2545;50.892;5.740;2022-10-17T05:25:12;15.43;;;6.00;;
5052;SDS011;2545;50.892;5.740;2022-10-17T05:27:37;18.37;;;6.00;;
5052;SDS011;2545;50.892;5.740;2022-10-17T05:30:02;9.67;;;5.60;;
5052;SDS011;2545;50.892;5.740;2022-10-17T05:32:28;6.90;;;5.03;;
5052;SDS011;2545;50.892;5.740;2022-10-17T05:34:54;13.80;;;5.07;;
5052;SDS011;2545;50.892;5.740;2022-10-17T05:37:19;10.03;;;5.33;;
5052;SDS011;2545;50.892;5.740;2022-10-17T05:39:44;9.70;;;5.13;;
5052;SDS011;2545;50.892;5.740;2022-10-17T05:42:09;12.83;;;5.43;;
5052;SDS011;2545;50.892;5.740;2022-10-17T05:44:35;8.07;;;5.13;;
5052;SDS011;2545;50.892;5.740;2022-10-17T05:47:00;15.73;;;5.87;;
5052;SDS011;2545;50.892;5.740;2022-10-17T05:49:25;7.27;;;5.03;;
5052;SDS011;2545;50.892;5.740;2022-10-17T05:51:51;7.43;;;5.20;;
5052;SDS011;2545;50.892;5.740;2022-10-17T05:54:16;18.93;;;4.67;;
5052;SDS011;2545;50.892;5.740;2022-10-17T05:56:41;7.53;;;4.50;;
5052;SDS011;2545;50.892;5.740;2022-10-17T05:59:07;7.40;;;5.13;;
5052;SDS011;2545;50.892;5.740;2022-10-17T06:01:32;13.60;;;5.50;;
5052;SDS011;2545;50.892;5.740;2022-10-17T06:03:57;10.10;;;5.00;;
5052;SDS011;2545;50.892;5.740;2022-10-17T06:06:23;20.17;;;5.27;;
5052;SDS011;2545;50.892;5.740;2022-10-17T06:08:48;6.73;;;4.10;;
5052;SDS011;2545;50.892;5.740;2022-10-17T06:11:13;11.43;;;5.07;;
5052;SDS011;2545;50.892;5.740;2022-10-17T06:13:39;8.50;;;5.40;;
5052;SDS011;2545;50.892;5.740;2022-10-17T06:16:05;10.53;;;5.57;;
5052;SDS011;2545;50.892;5.740;2022-10-17T06:18:30;13.17;;;4.13;;
5052;SDS011;2545;50.892;5.740;2022-10-17T06:21:06;6.87;;;4.50;;
5052;SDS011;2545;50.892;5.740;2022-10-17T06:23:33;12.13;;;6.07;;
5052;SDS011;2545;50.892;5.740;2022-10-17T06:26:00;11.97;;;5.50;;
5052;SDS011;2545;50.892;5.740;2022-10-17T06:28:26;8.73;;;5.00;;
5052;SDS011;2545;50.892;5.740;2022-10-17T06:30:51;21.50;;;5.63;;
5052;SDS011;2545;50.892;5.740;2022-10-17T06:33:17;11.27;;;5.27;;
5052;SDS011;2545;50.892;5.740;2022-10-17T06:35:42;10.27;;;5.20;;
5052;SDS011;2545;50.892;5.740;2022-10-17T06:38:08;12.93;;;4.70;;
5052;SDS011;2545;50.892;5.740;2022-10-17T06:40:34;10.40;;;4.90;;
5052;SDS011;2545;50.892;5.740;2022-10-17T06:42:59;14.70;;;5.13;;
5052;SDS011;2545;50.892;5.740;2022-10-17T06:45:24;9.87;;;5.20;;
5052;SDS011;2545;50.892;5.740;2022-10-17T06:47:50;14.90;;;5.57;;
5052;SDS011;2545;50.892;5.740;2022-10-17T06:50:15;7.10;;;4.37;;
5052;SDS011;2545;50.892;5.740;2022-10-17T06:52:40;14.07;;;5.43;;
5052;SDS011;2545;50.892;5.740;2022-10-17T06:55:06;8.47;;;4.60;;
5052;SDS011;2545;50.892;5.740;2022-10-17T06:57:31;12.03;;;5.57;;
5052;SDS011;2545;50.892;5.740;2022-10-17T06:59:56;16.03;;;4.90;;
5052;SDS011;2545;50.892;5.740;2022-10-17T07:02:22;11.10;;;5.43;;
5052;SDS011;2545;50.892;5.740;2022-10-17T07:04:48;12.37;;;5.83;;
5052;SDS011;2545;50.892;5.740;2022-10-17T07:07:13;12.90;;;4.80;;
5052;SDS011;2545;50.892;5.740;2022-10-17T07:09:39;11.30;;;4.90;;
5052;SDS011;2545;50.892;5.740;2022-10-17T07:12:04;16.63;;;5.20;;
5052;SDS011;2545;50.892;5.740;2022-10-17T07:14:32;17.10;;;6.07;;
5052;SDS011;2545;50.892;5.740;2022-10-17T07:16:58;7.40;;;4.77;;
5052;SDS011;2545;50.892;5.740;2022-10-17T07:19:23;10.63;;;5.73;;
5052;SDS011;2545;50.892;5.740;2022-10-17T07:21:50;7.47;;;4.90;;
5052;SDS011;2545;50.892;5.740;2022-10-17T07:24:16;8.37;;;5.23;;
5052;SDS011;2545;50.892;5.740;2022-10-17T07:26:41;15.33;;;4.60;;
5052;SDS011;2545;50.892;5.740;2022-10-17T07:29:06;6.03;;;4.67;;
5052;SDS011;2545;50.892;5.740;2022-10-17T07:31:33;16.93;;;6.50;;
5052;SDS011;2545;50.892;5.740;2022-10-17T07:33:58;9.27;;;4.63;;
5052;SDS011;2545;50.892;5.740;2022-10-17T07:36:24;10.30;;;5.30;;
5052;SDS011;2545;50.892;5.740;2022-10-17T07:38:49;14.57;;;4.53;;
5052;SDS011;2545;50.892;5.740;2022-10-17T07:41:15;8.70;;;4.60;;
5052;SDS011;2545;50.892;5.740;2022-10-17T07:43:40;10.07;;;5.00;;
5052;SDS011;2545;50.892;5.740;2022-10-17T07:46:07;11.10;;;4.87;;
5052;SDS011;2545;50.892;5.740;2022-10-17T07:48:33;6.10;;;4.90;;
5052;SDS011;2545;50.892;5.740;2022-10-17T07:51:02;9.40;;;5.47;;
5052;SDS011;2545;50.892;5.740;2022-10-17T07:53:29;6.77;;;4.83;;
5052;SDS011;2545;50.892;5.740;2022-10-17T07:55:54;7.80;;;4.60;;
5052;SDS011;2545;50.892;5.740;2022-10-17T07:58:20;13.93;;;5.30;;
5052;SDS011;2545;50.892;5.740;2022-10-17T08:00:45;7.97;;;5.30;;
5052;SDS011;2545;50.892;5.740;2022-10-17T08:03:14;10.73;;;5.07;;
5052;SDS011;2545;50.892;5.740;2022-10-17T08:05:40;5.30;;;4.10;;
5052;SDS011;2545;50.892;5.740;2022-10-17T08:08:05;12.40;;;5.40;;
5052;SDS011;2545;50.892;5.740;2022-10-17T08:10:31;6.60;;;4.63;;
5052;SDS011;2545;50.892;5.740;2022-10-17T08:12:56;7.70;;;4.57;;
5052;SDS011;2545;50.892;5.740;2022-10-17T08:15:22;20.10;;;4.80;;
5052;SDS011;2545;50.892;5.740;2022-10-17T08:17:49;5.43;;;4.13;;
5052;SDS011;2545;50.892;5.740;2022-10-17T08:20:14;11.40;;;4.37;;
5052;SDS011;2545;50.892;5.740;2022-10-17T08:22:40;9.53;;;5.07;;
5052;SDS011;2545;50.892;5.740;2022-10-17T08:25:05;11.20;;;4.27;;
5052;SDS011;2545;50.892;5.740;2022-10-17T08:27:32;14.67;;;4.60;;
5052;SDS011;2545;50.892;5.740;2022-10-17T08:29:57;11.80;;;4.50;;
5052;SDS011;2545;50.892;5.740;2022-10-17T08:32:23;5.40;;;3.40;;
5052;SDS011;2545;50.892;5.740;2022-10-17T08:34:51;8.50;;;4.90;;
5052;SDS011;2545;50.892;5.740;2022-10-17T08:37:17;13.80;;;4.63;;
5052;SDS011;2545;50.892;5.740;2022-10-17T08:39:43;10.23;;;4.50;;
5052;SDS011;2545;50.892;5.740;2022-10-17T08:47:40;7.27;;;3.83;;
5052;SDS011;2545;50.892;5.740;2022-10-17T08:50:27;8.53;;;4.50;;
5052;SDS011;2545;50.892;5.740;2022-10-17T08:55:31;10.23;;;4.43;;
5052;SDS011;2545;50.892;5.740;2022-10-17T08:58:01;8.77;;;4.53;;
5052;SDS011;2545;50.892;5.740;2022-10-17T09:00:27;7.53;;;4.27;;
5052;SDS011;2545;50.892;5.740;2022-10-17T09:05:43;6.90;;;4.30;;
5052;SDS011;2545;50.892;5.740;2022-10-17T09:14:01;18.87;;;5.10;;
5052;SDS011;2545;50.892;5.740;2022-10-17T09:19:30;11.30;;;4.20;;
5052;SDS011;2545;50.892;5.740;2022-10-17T09:24:35;12.90;;;4.70;;
5052;SDS011;2545;50.892;5.740;2022-10-17T09:27:05;6.93;;;4.30;;
5052;SDS011;2545;50.892;5.740;2022-10-17T09:29:42;10.90;;;4.90;;
5052;SDS011;2545;50.892;5.740;2022-10-17T09:32:13;9.33;;;3.87;;
5052;SDS011;2545;50.892;5.740;2022-10-17T09:34:43;9.40;;;3.93;;
5052;SDS011;2545;50.892;5.740;2022-10-17T09:37:10;7.20;;;3.77;;
5052;SDS011;2545;50.892;5.740;2022-10-17T09:39:38;6.57;;;3.80;;
5052;SDS011;2545;50.892;5.740;2022-10-17T09:42:07;13.27;;;4.73;;
5052;SDS011;2545;50.892;5.740;2022-10-17T09:44:39;5.67;;;3.77;;
5052;SDS011;2545;50.892;5.740;2022-10-17T09:49:46;7.40;;;4.03;;
5052;SDS011;2545;50.892;5.740;2022-10-17T09:57:59;6.70;;;3.83;;
5052;SDS011;2545;50.892;5.740;2022-10-17T10:00:30;5.27;;;3.77;;
5052;SDS011;2545;50.892;5.740;2022-10-17T10:05:40;12.23;;;4.63;;
5052;SDS011;2545;50.892;5.740;2022-10-17T10:08:13;7.53;;;4.00;;
5052;SDS011;2545;50.892;5.740;2022-10-17T10:10:41;14.37;;;4.40;;
5052;SDS011;2545;50.892;5.740;2022-10-17T10:15:40;14.23;;;5.40;;
5052;SDS011;2545;50.892;5.740;2022-10-17T10:21:05;6.00;;;4.37;;
5052;SDS011;2545;50.892;5.740;2022-10-17T10:23:31;20.13;;;4.57;;
5052;SDS011;2545;50.892;5.740;2022-10-17T10:25:57;7.77;;;4.90;;
5052;SDS011;2545;50.892;5.740;2022-10-17T10:28:30;13.90;;;5.30;;
5052;SDS011;2545;50.892;5.740;2022-10-17T10:30:59;24.27;;;5.43;;
5052;SDS011;2545;50.892;5.740;2022-10-17T10:33:28;10.53;;;5.00;;
5052;SDS011;2545;50.892;5.740;2022-10-17T10:35:59;8.77;;;5.50;;
5052;SDS011;2545;50.892;5.740;2022-10-17T10:38:27;7.73;;;4.90;;
5052;SDS011;2545;50.892;5.740;2022-10-17T10:40:54;17.90;;;5.10;;
5052;SDS011;2545;50.892;5.740;2022-10-17T10:43:23;9.47;;;4.50;;
5052;SDS011;2545;50.892;5.740;2022-10-17T10:45:50;8.00;;;4.60;;
5052;SDS011;2545;50.892;5.740;2022-10-17T10:50:54;8.13;;;4.47;;
5052;SDS011;2545;50.892;5.740;2022-10-17T10:56:13;16.40;;;4.83;;
5052;SDS011;2545;50.892;5.740;2022-10-17T10:58:51;10.97;;;4.53;;
5052;SDS011;2545;50.892;5.740;2022-10-17T11:04:16;14.57;;;4.90;;
5052;SDS011;2545;50.892;5.740;2022-10-17T11:06:51;10.70;;;4.43;;
5052;SDS011;2545;50.892;5.740;2022-10-17T11:15:08;10.90;;;5.30;;
5052;SDS011;2545;50.892;5.740;2022-10-17T11:17:59;17.40;;;6.10;;
5052;SDS011;2545;50.892;5.740;2022-10-17T11:20:29;7.40;;;4.37;;
5052;SDS011;2545;50.892;5.740;2022-10-17T11:23:03;6.37;;;4.13;;
5052;SDS011;2545;50.892;5.740;2022-10-17T11:25:36;8.60;;;5.00;;
5052;SDS011;2545;50.892;5.740;2022-10-17T11:28:07;9.70;;;4.80;;
5052;SDS011;2545;50.892;5.740;2022-10-17T11:33:08;7.80;;;4.70;;
5052;SDS011;2545;50.892;5.740;2022-10-17T11:35:38;15.30;;;4.50;;
5052;SDS011;2545;50.892;5.740;2022-10-17T11:40:58;11.70;;;4.00;;
5052;SDS011;2545;50.892;5.740;2022-10-17T11:43:34;16.33;;;4.10;;
5052;SDS011;2545;50.892;5.740;2022-10-17T11:46:12;7.50;;;3.77;;
5052;SDS011;2545;50.892;5.740;2022-10-17T11:48:54;14.43;;;3.73;;
5052;SDS011;2545;50.892;5.740;2022-10-17T11:51:25;10.53;;;4.30;;
5052;SDS011;2545;50.892;5.740;2022-10-17T11:53:58;10.40;;;4.33;;
5052;SDS011;2545;50.892;5.740;2022-10-17T11:56:41;7.53;;;3.67;;
5052;SDS011;2545;50.892;5.740;2022-10-17T11:59:32;14.33;;;4.20;;
5052;SDS011;2545;50.892;5.740;2022-10-17T12:02:17;14.40;;;3.83;;
5052;SDS011;2545;50.892;5.740;2022-10-17T12:04:55;8.97;;;3.80;;
5052;SDS011;2545;50.892;5.740;2022-10-17T12:12:54;8.07;;;3.40;;
5052;SDS011;2545;50.892;5.740;2022-10-17T12:17:57;7.50;;;4.00;;
5052;SDS011;2545;50.892;5.740;2022-10-17T12:25:34;11.40;;;3.63;;
5052;SDS011;2545;50.892;5.740;2022-10-17T12:28:10;8.60;;;4.20;;
5052;SDS011;2545;50.892;5.740;2022-10-17T12:33:31;13.17;;;4.60;;
5052;SDS011;2545;50.892;5.740;2022-10-17T12:38:46;10.23;;;4.07;;
5052;SDS011;2545;50.892;5.740;2022-10-17T12:41:12;7.60;;;4.30;;
5052;SDS011;2545;50.892;5.740;2022-10-17T12:43:48;9.80;;;4.50;;
5052;SDS011;2545;50.892;5.740;2022-10-17T12:54:39;6.53;;;3.90;;
5052;SDS011;2545;50.892;5.740;2022-10-17T12:57:16;12.90;;;3.73;;
5052;SDS011;2545;50.892;5.740;2022-10-17T12:59:45;10.80;;;3.70;;
5052;SDS011;2545;50.892;5.740;2022-10-17T13:02:14;11.40;;;3.83;;
5052;SDS011;2545;50.892;5.740;2022-10-17T13:04:43;12.70;;;3.77;;
5052;SDS011;2545;50.892;5.740;2022-10-17T13:07:17;12.13;;;4.60;;
5052;SDS011;2545;50.892;5.740;2022-10-17T13:09:44;9.10;;;3.80;;
5052;SDS011;2545;50.892;5.740;2022-10-17T13:12:11;18.80;;;4.50;;
5052;SDS011;2545;50.892;5.740;2022-10-17T13:14:39;14.20;;;4.57;;
5052;SDS011;2545;50.892;5.740;2022-10-17T13:17:11;16.57;;;4.70;;
5052;SDS011;2545;50.892;5.740;2022-10-17T13:19:46;13.07;;;4.60;;
5052;SDS011;2545;50.892;5.740;2022-10-17T13:22:14;9.90;;;4.27;;
5052;SDS011;2545;50.892;5.740;2022-10-17T13:24:43;10.40;;;4.30;;
5052;SDS011;2545;50.892;5.740;2022-10-17T13:27:25;6.50;;;4.40;;
5052;SDS011;2545;50.892;5.740;2022-10-17T13:29:54;17.50;;;4.53;;
5052;SDS011;2545;50.892;5.740;2022-10-17T13:32:21;8.30;;;3.50;;
5052;SDS011;2545;50.892;5.740;2022-10-17T13:35:03;8.10;;;4.23;;
5052;SDS011;2545;50.892;5.740;2022-10-17T13:37:37;7.20;;;3.80;;
5052;SDS011;2545;50.892;5.740;2022-10-17T13:40:05;9.77;;;3.90;;
5052;SDS011;2545;50.892;5.740;2022-10-17T13:42:38;7.17;;;3.93;;
5052;SDS011;2545;50.892;5.740;2022-10-17T13:45:09;12.60;;;3.90;;
5052;SDS011;2545;50.892;5.740;2022-10-17T13:47:41;8.57;;;4.10;;
5052;SDS011;2545;50.892;5.740;2022-10-17T13:50:07;9.17;;;3.63;;
5052;SDS011;2545;50.892;5.740;2022-10-17T13:52:44;16.23;;;4.37;;
5052;SDS011;2545;50.892;5.740;2022-10-17T13:55:14;12.40;;;4.20;;
5052;SDS011;2545;50.892;5.740;2022-10-17T13:57:41;16.63;;;4.87;;
5052;SDS011;2545;50.892;5.740;2022-10-17T14:00:10;15.77;;;4.40;;
5052;SDS011;2545;50.892;5.740;2022-10-17T14:02:42;9.07;;;4.07;;
5052;SDS011;2545;50.892;5.740;2022-10-17T14:05:12;13.37;;;5.20;;
5052;SDS011;2545;50.892;5.740;2022-10-17T14:07:44;10.53;;;3.93;;
5052;SDS011;2545;50.892;5.740;2022-10-17T14:10:22;7.70;;;4.20;;
5052;SDS011;2545;50.892;5.740;2022-10-17T14:12:52;12.83;;;4.00;;
5052;SDS011;2545;50.892;5.740;2022-10-17T14:15:20;8.50;;;4.00;;
5052;SDS011;2545;50.892;5.740;2022-10-17T14:17:52;10.97;;;4.30;;
5052;SDS011;2545;50.892;5.740;2022-10-17T14:20:20;9.17;;;4.20;;
5052;SDS011;2545;50.892;5.740;2022-10-17T14:22:47;10.13;;;4.63;;
5052;SDS011;2545;50.892;5.740;2022-10-17T14:25:28;8.50;;;4.30;;
5052;SDS011;2545;50.892;5.740;2022-10-17T14:28:00;12.60;;;4.60;;
5052;SDS011;2545;50.892;5.740;2022-10-17T14:30:47;9.00;;;5.10;;
5052;SDS011;2545;50.892;5.740;2022-10-17T14:35:54;12.87;;;4.50;;
5052;SDS011;2545;50.892;5.740;2022-10-17T14:38:21;9.00;;;4.93;;
5052;SDS011;2545;50.892;5.740;2022-10-17T14:43:19;13.47;;;5.20;;
5052;SDS011;2545;50.892;5.740;2022-10-17T14:45:47;14.80;;;4.93;;
5052;SDS011;2545;50.892;5.740;2022-10-17T14:48:14;14.40;;;6.03;;
5052;SDS011;2545;50.892;5.740;2022-10-17T14:50:41;11.43;;;4.83;;
5052;SDS011;2545;50.892;5.740;2022-10-17T14:53:27;9.23;;;5.20;;
5052;SDS011;2545;50.892;5.740;2022-10-17T14:55:55;9.43;;;4.60;;
5052;SDS011;2545;50.892;5.740;2022-10-17T14:58:29;6.73;;;4.70;;
5052;SDS011;2545;50.892;5.740;2022-10-17T15:00:57;10.90;;;5.30;;
5052;SDS011;2545;50.892;5.740;2022-10-17T15:03:23;12.13;;;5.30;;
5052;SDS011;2545;50.892;5.740;2022-10-17T15:05:50;10.40;;;5.00;;
5052;SDS011;2545;50.892;5.740;2022-10-17T15:08:17;9.43;;;4.87;;
5052;SDS011;2545;50.892;5.740;2022-10-17T15:10:44;7.47;;;5.00;;
5052;SDS011;2545;50.892;5.740;2022-10-17T15:13:11;10.90;;;5.27;;
5052;SDS011;2545;50.892;5.740;2022-10-17T15:15:37;8.67;;;5.53;;
5052;SDS011;2545;50.892;5.740;2022-10-17T15:18:04;13.30;;;5.47;;
5052;SDS011;2545;50.892;5.740;2022-10-17T15:20:30;9.37;;;5.43;;
5052;SDS011;2545;50.892;5.740;2022-10-17T15:22:57;9.77;;;6.57;;
5052;SDS011;2545;50.892;5.740;2022-10-17T15:25:24;9.97;;;6.17;;
5052;SDS011;2545;50.892;5.740;2022-10-17T15:27:50;10.60;;;6.90;;
5052;SDS011;2545;50.892;5.740;2022-10-17T15:32:53;10.60;;;7.43;;
5052;SDS011;2545;50.892;5.740;2022-10-17T15:35:19;19.50;;;8.10;;
5052;SDS011;2545;50.892;5.740;2022-10-17T15:37:45;17.80;;;7.07;;
5052;SDS011;2545;50.892;5.740;2022-10-17T15:40:21;12.17;;;5.80;;
5052;SDS011;2545;50.892;5.740;2022-10-17T15:42:48;10.40;;;5.63;;
5052;SDS011;2545;50.892;5.740;2022-10-17T15:45:16;7.80;;;5.73;;
5052;SDS011;2545;50.892;5.740;2022-10-17T15:47:48;13.20;;;6.53;;
5052;SDS011;2545;50.892;5.740;2022-10-17T15:50:16;12.43;;;6.73;;
5052;SDS011;2545;50.892;5.740;2022-10-17T15:52:42;13.47;;;6.90;;
5052;SDS011;2545;50.892;5.740;2022-10-17T15:55:08;9.50;;;5.30;;
5052;SDS011;2545;50.892;5.740;2022-10-17T15:57:37;7.73;;;4.67;;
5052;SDS011;2545;50.892;5.740;2022-10-17T16:00:06;16.67;;;6.10;;
5052;SDS011;2545;50.892;5.740;2022-10-17T16:02:36;7.50;;;4.73;;
5052;SDS011;2545;50.892;5.740;2022-10-17T16:05:04;8.80;;;5.07;;
5052;SDS011;2545;50.892;5.740;2022-10-17T16:07:37;8.67;;;5.20;;
5052;SDS011;2545;50.892;5.740;2022-10-17T16:10:02;9.37;;;5.63;;
5052;SDS011;2545;50.892;5.740;2022-10-17T16:12:28;7.80;;;5.53;;
5052;SDS011;2545;50.892;5.740;2022-10-17T16:14:55;11.83;;;5.33;;
5052;SDS011;2545;50.892;5.740;2022-10-17T16:17:21;10.73;;;5.67;;
5052;SDS011;2545;50.892;5.740;2022-10-17T16:19:46;14.23;;;6.67;;
5052;SDS011;2545;50.892;5.740;2022-10-17T16:22:16;11.37;;;5.50;;
5052;SDS011;2545;50.892;5.740;2022-10-17T16:24:44;12.00;;;4.80;;
5052;SDS011;2545;50.892;5.740;2022-10-17T16:27:10;11.37;;;6.27;;
5052;SDS011;2545;50.892;5.740;2022-10-17T16:29:35;10.50;;;6.73;;
5052;SDS011;2545;50.892;5.740;2022-10-17T16:32:00;7.07;;;5.63;;
5052;SDS011;2545;50.892;5.740;2022-10-17T16:34:25;8.90;;;6.20;;
5052;SDS011;2545;50.892;5.740;2022-10-17T16:36:51;15.03;;;6.13;;
5052;SDS011;2545;50.892;5.740;2022-10-17T16:39:16;5.70;;;5.20;;
5052;SDS011;2545;50.892;5.740;2022-10-17T16:41:41;11.77;;;5.80;;
5052;SDS011;2545;50.892;5.740;2022-10-17T16:44:07;14.93;;;5.73;;
5052;SDS011;2545;50.892;5.740;2022-10-17T16:46:35;8.63;;;4.73;;
5052;SDS011;2545;50.892;5.740;2022-10-17T16:49:02;6.30;;;4.50;;
5052;SDS011;2545;50.892;5.740;2022-10-17T16:51:28;8.10;;;4.50;;
5052;SDS011;2545;50.892;5.740;2022-10-17T16:53:55;9.03;;;4.50;;
5052;SDS011;2545;50.892;5.740;2022-10-17T16:56:26;5.90;;;4.00;;
5052;SDS011;2545;50.892;5.740;2022-10-17T16:58:56;5.67;;;3.67;;
5052;SDS011;2545;50.892;5.740;2022-10-17T17:01:23;7.23;;;3.60;;
5052;SDS011;2545;50.892;5.740;2022-10-17T17:03:49;9.97;;;4.50;;
5052;SDS011;2545;50.892;5.740;2022-10-17T17:06:22;6.10;;;4.77;;
5052;SDS011;2545;50.892;5.740;2022-10-17T17:08:53;9.30;;;4.63;;
5052;SDS011;2545;50.892;5.740;2022-10-17T17:11:19;11.40;;;3.97;;
5052;SDS011;2545;50.892;5.740;2022-10-17T17:13:46;5.33;;;4.10;;
5052;SDS011;2545;50.892;5.740;2022-10-17T17:16:13;5.07;;;3.97;;
5052;SDS011;2545;50.892;5.740;2022-10-17T17:18:40;5.37;;;3.73;;
5052;SDS011;2545;50.892;5.740;2022-10-17T17:21:06;6.93;;;3.03;;
5052;SDS011;2545;50.892;5.740;2022-10-17T17:23:33;7.23;;;3.50;;
5052;SDS011;2545;50.892;5.740;2022-10-17T17:26:01;6.10;;;4.03;;
5052;SDS011;2545;50.892;5.740;2022-10-17T17:28:47;7.80;;;3.80;;